createdAt,value
2022-10-26T00:02:15.338Z,3.05
2022-10-26T00:04:47.676Z,2.80
2022-10-26T00:07:20.236Z,2.08
2022-10-26T00:09:52.515Z,2.17
2022-10-26T00:12:24.833Z,2.30
2022-10-26T00:14:56.729Z,2.13
2022-10-26T00:17:29.443Z,2.53
2022-10-26T00:20:02.339Z,2.70
2022-10-26T00:22:35.066Z,2.65
2022-10-26T00:25:07.558Z,2.83
2022-10-26T00:27:40.249Z,2.40
2022-10-26T00:30:12.554Z,2.20
2022-10-26T00:32:44.873Z,2.35
2022-10-26T00:35:23.081Z,2.50
2022-10-26T00:37:57.128Z,2.78
2022-10-26T00:40:30.212Z,2.28
2022-10-26T00:43:02.942Z,3.10
2022-10-26T00:45:34.850Z,2.75
2022-10-26T00:48:23.201Z,2.30
2022-10-26T00:50:57.179Z,2.55
2022-10-26T00:53:30.629Z,2.28
2022-10-26T00:56:04.202Z,2.50
2022-10-26T00:58:36.487Z,2.30
2022-10-26T01:01:09.756Z,2.63
2022-10-26T01:03:43.228Z,2.65
2022-10-26T01:06:15.902Z,2.53
2022-10-26T01:08:48.948Z,2.72
2022-10-26T01:11:20.827Z,2.30
2022-10-26T01:13:54.555Z,2.25
2022-10-26T01:16:55.280Z,2.33
2022-10-26T01:19:36.971Z,2.42
2022-10-26T01:22:22.673Z,2.33
2022-10-26T01:25:22.335Z,2.10
2022-10-26T01:27:54.777Z,2.40
2022-10-26T01:30:48.787Z,2.50
2022-10-26T01:33:35.295Z,2.53
2022-10-26T01:36:21.258Z,2.27
2022-10-26T01:38:59.750Z,2.10
2022-10-26T01:41:41.143Z,2.50
2022-10-26T01:44:28.597Z,2.10
2022-10-26T01:47:04.196Z,2.00
2022-10-26T01:49:42.016Z,2.35
2022-10-26T01:52:14.711Z,2.15
2022-10-26T01:54:47.035Z,2.20
2022-10-26T01:57:21.665Z,2.35
2022-10-26T02:00:13.003Z,2.45
2022-10-26T02:03:15.408Z,2.83
2022-10-26T02:06:07.591Z,2.47
2022-10-26T02:09:01.850Z,2.90
2022-10-26T02:11:48.744Z,2.70
2022-10-26T02:14:51.224Z,2.28
2022-10-26T02:17:43.073Z,2.27
2022-10-26T02:20:22.532Z,2.53
2022-10-26T02:22:56.793Z,2.20
2022-10-26T02:25:34.220Z,2.63
2022-10-26T02:28:13.688Z,2.35
2022-10-26T02:30:48.147Z,2.53
2022-10-26T02:33:22.464Z,2.92
2022-10-26T02:35:55.918Z,2.53
2022-10-26T02:38:31.474Z,2.70
2022-10-26T02:41:05.020Z,2.60
2022-10-26T02:43:45.827Z,3.33
2022-10-26T02:46:23.245Z,2.30
2022-10-26T02:48:57.153Z,2.80
2022-10-26T02:51:44.705Z,3.03
2022-10-26T02:54:43.751Z,2.80
2022-10-26T02:57:30.367Z,2.80
2022-10-26T03:00:04.537Z,2.92
2022-10-26T03:02:37.035Z,2.53
2022-10-26T03:05:20.284Z,2.47
2022-10-26T03:07:52.479Z,2.70
2022-10-26T03:10:25.818Z,2.77
2022-10-26T03:12:57.717Z,2.83
2022-10-26T03:15:30.394Z,3.15
2022-10-26T03:18:02.671Z,2.80
2022-10-26T03:20:35.609Z,2.80
2022-10-26T03:23:07.511Z,2.60
2022-10-26T03:25:40.146Z,2.90
2022-10-26T03:28:12.138Z,2.63
2022-10-26T03:30:44.631Z,2.45
2022-10-26T03:33:16.992Z,2.90
2022-10-26T03:35:57.175Z,2.93
2022-10-26T03:38:29.137Z,2.70
2022-10-26T03:41:01.823Z,2.80
2022-10-26T03:43:33.742Z,2.88
2022-10-26T03:46:06.429Z,2.72
2022-10-26T03:48:38.345Z,2.57
2022-10-26T03:51:11.063Z,3.25
2022-10-26T03:53:43.005Z,2.50
2022-10-26T03:56:15.778Z,2.88
2022-10-26T03:58:47.686Z,2.60
2022-10-26T04:01:20.852Z,2.92
2022-10-26T04:03:53.008Z,2.60
2022-10-26T04:06:26.691Z,2.58
2022-10-26T04:09:02.361Z,2.58
2022-10-26T04:11:34.874Z,3.13
2022-10-26T04:14:06.767Z,2.90
2022-10-26T04:16:39.351Z,3.28
2022-10-26T04:19:11.573Z,2.60
2022-10-26T04:21:44.130Z,3.00
2022-10-26T04:24:16.212Z,3.15
2022-10-26T04:26:49.146Z,3.07
2022-10-26T04:29:21.456Z,3.22
2022-10-26T04:31:53.949Z,3.10
2022-10-26T04:34:25.863Z,4.07
2022-10-26T04:36:58.399Z,3.22
2022-10-26T04:39:30.350Z,2.83
2022-10-26T04:42:02.947Z,2.78
2022-10-26T04:44:35.224Z,2.90
2022-10-26T04:47:07.819Z,3.33
2022-10-26T04:49:39.727Z,3.00
2022-10-26T04:52:12.348Z,2.80
2022-10-26T04:54:44.248Z,3.03
2022-10-26T04:57:16.929Z,3.08
2022-10-26T04:59:49.253Z,3.08
2022-10-26T05:02:21.877Z,3.20
2022-10-26T05:04:54.423Z,2.83
2022-10-26T05:07:27.043Z,3.38
2022-10-26T05:09:59.029Z,3.55
2022-10-26T05:12:31.670Z,3.63
2022-10-26T05:15:06.522Z,3.13
2022-10-26T05:17:41.609Z,3.13
2022-10-26T05:20:14.222Z,3.05
2022-10-26T05:22:53.552Z,3.97
2022-10-26T05:25:26.184Z,3.67
2022-10-26T05:28:04.445Z,3.30
2022-10-26T05:30:36.867Z,3.53
2022-10-26T05:33:11.645Z,3.85
2022-10-26T05:35:43.824Z,3.88
2022-10-26T05:38:18.263Z,3.00
2022-10-26T05:40:53.474Z,3.53
2022-10-26T05:43:27.637Z,4.13
2022-10-26T05:45:59.581Z,3.90
2022-10-26T05:48:32.641Z,3.30
2022-10-26T05:51:05.067Z,3.95
2022-10-26T05:53:37.723Z,3.75
2022-10-26T05:56:23.212Z,4.40
2022-10-26T05:58:56.529Z,3.58
2022-10-26T06:02:06.363Z,4.07
2022-10-26T06:04:48.203Z,3.58
2022-10-26T06:07:20.901Z,4.00
2022-10-26T06:09:54.079Z,3.77
2022-10-26T06:12:26.621Z,3.88
2022-10-26T06:14:59.848Z,3.53
2022-10-26T06:18:14.216Z,4.30
2022-10-26T06:21:00.924Z,3.78
2022-10-26T06:24:21.400Z,3.37
2022-10-26T06:26:58.560Z,3.80
2022-10-26T06:30:01.815Z,3.70
2022-10-26T06:32:34.760Z,3.25
2022-10-26T06:35:12.953Z,3.33
2022-10-26T06:37:46.994Z,2.97
2022-10-26T06:40:19.672Z,2.92
2022-10-26T06:42:52.400Z,3.40
2022-10-26T06:45:25.148Z,3.90
2022-10-26T06:48:11.229Z,4.22
2022-10-26T06:50:54.100Z,4.23
2022-10-26T06:54:25.225Z,3.85
2022-10-26T06:56:57.715Z,3.38
2022-10-26T06:59:42.551Z,3.53
2022-10-26T07:02:15.161Z,3.50
2022-10-26T07:04:48.170Z,3.73
2022-10-26T07:07:25.974Z,3.78
2022-10-26T07:09:58.681Z,4.00
2022-10-26T07:12:32.872Z,5.10
2022-10-26T07:17:48.509Z,4.50
2022-10-26T07:20:22.343Z,3.72
2022-10-26T07:22:56.429Z,4.40
2022-10-26T07:25:29.403Z,4.40
2022-10-26T07:28:01.766Z,3.40
2022-10-26T07:30:34.431Z,3.70
2022-10-26T07:33:13.064Z,4.93
2022-10-26T07:35:45.617Z,4.15
2022-10-26T07:38:17.560Z,4.15
2022-10-26T07:40:50.957Z,4.10
2022-10-26T07:43:23.271Z,4.27
2022-10-26T07:45:56.621Z,4.22
2022-10-26T07:48:28.638Z,4.05
2022-10-26T07:51:03.391Z,3.88
2022-10-26T07:53:35.496Z,3.75
2022-10-26T07:56:10.528Z,4.17
2022-10-26T07:58:42.862Z,3.80
2022-10-26T08:01:16.690Z,3.78
2022-10-26T08:03:51.940Z,3.67
2022-10-26T08:06:25.035Z,3.30
2022-10-26T08:08:57.452Z,3.80
2022-10-26T08:11:30.201Z,4.00
2022-10-26T08:14:02.326Z,4.53
2022-10-26T08:16:35.388Z,3.72
2022-10-26T08:19:07.919Z,4.20
2022-10-26T08:21:40.812Z,4.20
2022-10-26T08:24:12.975Z,4.38
2022-10-26T08:26:46.790Z,3.92
2022-10-26T08:29:18.699Z,4.05
2022-10-26T08:31:51.684Z,4.28
2022-10-26T08:34:24.192Z,5.20
2022-10-26T08:36:57.044Z,4.00
2022-10-26T08:39:30.710Z,4.35
2022-10-26T08:42:14.665Z,4.35
2022-10-26T08:44:50.007Z,4.07
2022-10-26T08:47:28.729Z,3.73
2022-10-26T08:50:46.426Z,3.72
2022-10-26T08:53:42.079Z,4.35
2022-10-26T08:56:29.529Z,4.03
2022-10-26T08:59:40.035Z,4.07
2022-10-26T09:02:15.090Z,4.00
2022-10-26T09:04:47.780Z,5.05
2022-10-26T09:08:03.325Z,4.65
2022-10-26T09:10:51.110Z,4.38
2022-10-26T09:13:59.833Z,4.07
2022-10-26T09:16:44.462Z,4.40
2022-10-26T09:19:52.944Z,3.50
2022-10-26T09:22:43.259Z,4.50
2022-10-26T09:25:30.501Z,4.40
2022-10-26T09:28:02.992Z,3.83
2022-10-26T09:30:36.318Z,4.00
2022-10-26T09:33:20.094Z,4.45
2022-10-26T09:36:03.550Z,4.18
2022-10-26T09:38:44.949Z,3.67
2022-10-26T09:41:28.262Z,3.45
2022-10-26T09:44:26.454Z,3.53
2022-10-26T09:47:33.676Z,3.85
2022-10-26T09:50:29.925Z,3.28
2022-10-26T09:53:02.769Z,3.35
2022-10-26T09:55:44.506Z,3.63
2022-10-26T09:58:28.492Z,4.13
2022-10-26T10:01:01.611Z,3.88
2022-10-26T10:03:33.867Z,3.20
2022-10-26T10:06:20.901Z,3.30
2022-10-26T10:09:12.058Z,3.42
2022-10-26T10:12:05.296Z,4.23
2022-10-26T10:14:58.580Z,3.60
2022-10-26T10:17:30.962Z,3.55
2022-10-26T10:20:13.393Z,4.25
2022-10-26T10:23:03.972Z,3.33
2022-10-26T10:25:39.427Z,4.37
2022-10-26T10:28:26.560Z,3.80
2022-10-26T10:31:06.370Z,3.88
2022-10-26T10:33:42.657Z,4.18
2022-10-26T10:36:24.496Z,3.83
2022-10-26T10:38:56.675Z,3.77
2022-10-26T10:41:36.925Z,4.25
2022-10-26T10:44:25.488Z,4.20
2022-10-26T10:47:06.727Z,4.43
2022-10-26T10:49:38.906Z,3.80
2022-10-26T10:52:29.717Z,4.00
2022-10-26T10:55:13.580Z,4.45
2022-10-26T10:57:55.177Z,4.53
2022-10-26T11:00:28.022Z,4.65
2022-10-26T11:03:14.502Z,4.35
2022-10-26T11:06:11.537Z,4.70
2022-10-26T11:09:09.815Z,4.82
2022-10-26T11:11:48.272Z,4.18
2022-10-26T11:14:38.760Z,4.30
2022-10-26T11:17:52.086Z,4.05
2022-10-26T11:20:28.827Z,4.93
2022-10-26T11:23:15.782Z,4.93
2022-10-26T11:25:59.805Z,4.50
2022-10-26T11:28:46.461Z,4.45
2022-10-26T11:31:45.405Z,5.20
2022-10-26T11:34:30.469Z,4.07
2022-10-26T11:37:13.701Z,3.72
2022-10-26T11:39:59.269Z,4.10
2022-10-26T11:42:51.684Z,4.38
2022-10-26T11:45:42.527Z,4.50
2022-10-26T11:48:49.927Z,3.67
2022-10-26T11:51:41.644Z,4.10
2022-10-26T11:54:31.493Z,3.83
2022-10-26T11:57:05.088Z,4.07
2022-10-26T11:59:46.079Z,4.03
2022-10-26T12:02:24.941Z,4.13
2022-10-26T12:05:33.189Z,4.63
2022-10-26T12:08:14.256Z,5.18
2022-10-26T12:10:58.690Z,4.43
2022-10-26T12:13:54.689Z,3.55
2022-10-26T12:16:59.155Z,3.83
2022-10-26T12:20:09.960Z,3.80
2022-10-26T12:22:43.668Z,4.60
2022-10-26T12:25:16.335Z,3.83
2022-10-26T12:30:27.935Z,4.23
2022-10-26T12:33:22.899Z,4.10
2022-10-26T12:35:55.363Z,4.22
2022-10-26T12:38:47.549Z,4.40
2022-10-26T12:41:27.613Z,4.10
2022-10-26T12:44:06.229Z,4.00
2022-10-26T12:46:43.272Z,3.92
2022-10-26T12:49:59.645Z,3.83
2022-10-26T12:52:35.815Z,3.75
2022-10-26T12:55:51.457Z,4.05
2022-10-26T12:58:53.862Z,4.30
2022-10-26T13:01:47.375Z,3.83
2022-10-26T13:04:49.141Z,4.18
2022-10-26T13:07:27.922Z,4.43
2022-10-26T13:10:17.518Z,4.15
2022-10-26T13:13:02.416Z,3.90
2022-10-26T13:15:55.134Z,3.60
2022-10-26T13:18:28.651Z,4.30
2022-10-26T13:21:19.373Z,4.20
2022-10-26T13:23:55.135Z,4.00
2022-10-26T13:26:29.661Z,3.77
2022-10-26T13:29:04.537Z,3.70
2022-10-26T13:31:37.483Z,4.18
2022-10-26T13:34:16.613Z,4.18
2022-10-26T13:37:17.147Z,3.72
2022-10-26T13:39:56.259Z,3.73
2022-10-26T13:42:48.601Z,4.10
2022-10-26T13:45:29.204Z,4.30
2022-10-26T13:48:16.663Z,4.15
2022-10-26T13:53:41.600Z,4.40
2022-10-26T13:56:37.883Z,3.97
2022-10-26T13:59:13.712Z,4.15
2022-10-26T14:01:46.124Z,4.65
2022-10-26T14:04:27.449Z,4.55
2022-10-26T14:06:59.659Z,4.93
2022-10-26T14:09:32.491Z,9.75
2022-10-26T14:12:04.577Z,4.18
2022-10-26T14:14:38.335Z,4.47
2022-10-26T14:17:25.097Z,4.63
2022-10-26T14:19:58.196Z,6.90
2022-10-26T14:22:31.150Z,4.22
2022-10-26T14:25:03.257Z,4.32
2022-10-26T14:27:40.140Z,4.20
2022-10-26T14:30:34.022Z,3.92
2022-10-26T14:33:20.619Z,4.30
2022-10-26T14:35:54.056Z,4.60
2022-10-26T14:38:31.066Z,4.45
2022-10-26T14:41:04.349Z,3.60
2022-10-26T14:43:37.148Z,4.10
2022-10-26T14:46:17.885Z,4.57
2022-10-26T14:48:59.851Z,4.03
2022-10-26T14:51:36.041Z,4.47
2022-10-26T14:54:25.097Z,4.57
2022-10-26T14:56:58.013Z,3.92
2022-10-26T14:59:32.208Z,4.47
2022-10-26T15:02:20.070Z,4.32
2022-10-26T15:05:19.912Z,3.55
2022-10-26T15:07:53.759Z,5.05
2022-10-26T15:10:37.812Z,3.88
2022-10-26T15:13:22.886Z,4.20
2022-10-26T15:15:58.546Z,4.10
2022-10-26T15:18:35.448Z,4.03
2022-10-26T15:21:45.833Z,4.03
2022-10-26T15:24:21.827Z,3.97
2022-10-26T15:26:54.218Z,3.90
2022-10-26T15:29:49.610Z,3.95
2022-10-26T15:32:33.177Z,3.67
2022-10-26T15:35:12.484Z,3.97
2022-10-26T15:37:45.075Z,4.45
2022-10-26T15:40:18.894Z,4.00
2022-10-26T15:42:53.895Z,4.57
2022-10-26T15:45:31.141Z,4.28
2022-10-26T15:48:25.763Z,4.10
2022-10-26T15:50:58.592Z,3.88
2022-10-26T15:53:31.518Z,4.17
2022-10-26T15:56:12.233Z,3.95
2022-10-26T15:58:45.608Z,4.80
2022-10-26T16:01:23.737Z,5.10
2022-10-26T16:03:57.992Z,4.88
2022-10-26T16:06:39.670Z,4.60
2022-10-26T16:09:18.445Z,4.45
2022-10-26T16:11:51.439Z,4.70
2022-10-26T16:14:23.777Z,4.53
2022-10-26T16:16:59.586Z,3.65
2022-10-26T16:19:31.826Z,4.30
2022-10-26T16:22:05.008Z,4.43
2022-10-26T16:24:36.957Z,4.82
2022-10-26T16:27:10.130Z,4.60
2022-10-26T16:29:42.536Z,4.78
2022-10-26T16:32:15.304Z,4.13
2022-10-26T16:34:47.605Z,4.32
2022-10-26T16:37:20.303Z,4.75
2022-10-26T16:39:52.667Z,4.78
2022-10-26T16:42:25.769Z,4.78
2022-10-26T16:45:01.693Z,4.40
2022-10-26T16:47:37.331Z,4.72
2022-10-26T16:50:12.219Z,5.25
2022-10-26T16:52:45.499Z,4.60
2022-10-26T16:55:18.542Z,4.90
2022-10-26T16:57:51.965Z,4.93
2022-10-26T17:00:24.695Z,5.22
2022-10-26T17:02:57.396Z,5.10
2022-10-26T17:05:29.819Z,4.13
2022-10-26T17:08:02.534Z,4.38
2022-10-26T17:10:34.802Z,5.30
2022-10-26T17:13:07.598Z,5.00
2022-10-26T17:15:39.948Z,4.85
2022-10-26T17:18:12.076Z,5.25
2022-10-26T17:20:52.207Z,5.30
2022-10-26T17:23:25.378Z,5.50
2022-10-26T17:26:05.670Z,5.20
2022-10-26T17:28:38.309Z,5.78
2022-10-26T17:31:13.710Z,5.28
2022-10-26T17:33:50.745Z,4.97
2022-10-26T17:36:25.532Z,4.93
2022-10-26T17:38:58.727Z,4.80
2022-10-26T17:41:31.464Z,5.80
2022-10-26T17:44:04.517Z,5.78
2022-10-26T17:46:36.822Z,5.38
2022-10-26T17:49:10.007Z,5.00
2022-10-26T17:51:42.286Z,4.43
2022-10-26T17:56:54.094Z,5.32
2022-10-26T17:59:26.211Z,4.90
2022-10-26T18:02:00.802Z,5.13
2022-10-26T18:04:32.754Z,6.05
2022-10-26T18:07:05.884Z,5.18
2022-10-26T18:09:37.861Z,5.88
2022-10-26T18:12:11.335Z,5.45
2022-10-26T18:14:43.268Z,4.80
2022-10-26T18:17:16.024Z,6.00
2022-10-26T18:19:48.736Z,5.10
2022-10-26T18:22:21.487Z,5.50
2022-10-26T18:24:53.368Z,5.05
2022-10-26T18:27:27.058Z,5.30
2022-10-26T18:29:59.328Z,5.82
2022-10-26T18:32:32.093Z,4.90
2022-10-26T18:35:04.365Z,5.07
2022-10-26T18:37:36.350Z,5.47
2022-10-26T18:40:09.735Z,5.20
2022-10-26T18:42:41.686Z,5.00
2022-10-26T18:45:14.524Z,5.20
2022-10-26T18:47:46.397Z,5.80
2022-10-26T18:50:19.148Z,5.72
2022-10-26T18:52:51.355Z,5.20
2022-10-26T18:55:23.707Z,4.72
2022-10-26T18:57:57.440Z,5.68
2022-10-26T19:00:29.761Z,5.30
2022-10-26T19:03:01.645Z,5.32
2022-10-26T19:05:35.812Z,5.70
2022-10-26T19:08:11.835Z,5.63
2022-10-26T19:10:44.562Z,5.22
2022-10-26T19:13:16.478Z,5.30
2022-10-26T19:15:59.959Z,5.30
2022-10-26T19:18:32.866Z,5.13
2022-10-26T19:21:14.658Z,5.05
2022-10-26T19:23:50.682Z,5.07
2022-10-26T19:26:30.635Z,5.47
2022-10-26T19:29:07.700Z,5.72
2022-10-26T19:31:39.585Z,4.90
2022-10-26T19:34:14.251Z,4.93
2022-10-26T19:36:47.585Z,4.50
2022-10-26T19:39:19.607Z,5.22
2022-10-26T19:41:52.778Z,5.35
2022-10-26T19:44:25.720Z,5.60
2022-10-26T19:46:58.158Z,4.55
2022-10-26T19:49:30.407Z,5.05
2022-10-26T19:52:03.941Z,5.70
2022-10-26T19:54:36.761Z,4.70
2022-10-26T19:57:09.528Z,4.50
2022-10-26T19:59:41.957Z,4.40
2022-10-26T20:02:14.638Z,4.65
2022-10-26T20:04:47.703Z,4.78
2022-10-26T20:07:20.567Z,4.88
2022-10-26T20:09:52.886Z,4.00
2022-10-26T20:12:25.595Z,4.85
2022-10-26T20:14:57.916Z,4.90
2022-10-26T20:17:30.294Z,4.55
2022-10-26T20:20:03.019Z,5.00
2022-10-26T20:22:35.763Z,6.27
2022-10-26T20:25:08.028Z,5.30
2022-10-26T20:27:42.277Z,4.65
2022-10-26T20:30:14.465Z,4.95
2022-10-26T20:32:46.350Z,4.78
2022-10-26T20:35:19.104Z,4.60
2022-10-26T20:37:52.460Z,4.20
2022-10-26T20:40:25.771Z,3.80
2022-10-26T20:42:58.545Z,3.95
2022-10-26T20:45:32.336Z,4.65
2022-10-26T20:48:05.802Z,4.90
2022-10-26T20:50:38.524Z,4.50
2022-10-26T20:53:39.594Z,4.30
2022-10-26T20:56:25.851Z,4.43
2022-10-26T20:59:01.550Z,4.32
2022-10-26T21:01:35.246Z,4.20
2022-10-26T21:04:08.842Z,4.28
2022-10-26T21:06:41.533Z,4.20
2022-10-26T21:09:13.432Z,4.63
2022-10-26T21:11:46.210Z,4.13
2022-10-26T21:14:18.531Z,4.20
2022-10-26T21:16:50.497Z,3.92
2022-10-26T21:19:23.673Z,3.90
2022-10-26T21:21:56.007Z,4.55
2022-10-26T21:24:28.785Z,4.38
2022-10-26T21:27:00.706Z,4.20
2022-10-26T21:29:33.826Z,4.20
2022-10-26T21:32:06.015Z,4.38
2022-10-26T21:34:38.713Z,3.60
2022-10-26T21:37:11.005Z,3.80
2022-10-26T21:39:43.346Z,4.55
2022-10-26T21:42:15.659Z,3.83
2022-10-26T21:44:48.080Z,4.10
2022-10-26T21:47:20.232Z,3.90
2022-10-26T21:49:52.957Z,3.95
2022-10-26T21:52:25.483Z,3.87
2022-10-26T21:54:58.335Z,3.35
2022-10-26T21:57:31.079Z,3.30
2022-10-26T22:00:03.624Z,3.53
2022-10-26T22:02:45.588Z,3.78
2022-10-26T22:05:17.496Z,3.72
2022-10-26T22:07:50.034Z,3.90
2022-10-26T22:10:23.007Z,3.17
2022-10-26T22:12:55.809Z,3.60
2022-10-26T22:15:28.201Z,3.47
2022-10-26T22:18:00.094Z,3.22
2022-10-26T22:20:32.883Z,3.13
2022-10-26T22:25:42.505Z,3.33
2022-10-26T22:28:15.229Z,3.30
2022-10-26T22:30:47.130Z,3.53
2022-10-26T22:33:20.242Z,3.53
2022-10-26T22:35:54.328Z,3.25
2022-10-26T22:38:26.312Z,3.03
2022-10-26T22:40:59.400Z,3.33
2022-10-26T22:43:31.917Z,3.33
2022-10-26T22:46:10.337Z,5.13
2022-10-26T22:48:45.326Z,3.42
2022-10-26T22:51:20.147Z,3.28
2022-10-26T22:53:57.517Z,3.33
2022-10-26T22:56:32.287Z,2.90
2022-10-26T22:59:06.141Z,3.67
2022-10-26T23:01:42.116Z,2.97
2022-10-26T23:04:14.801Z,3.05
2022-10-26T23:06:46.669Z,2.85
2022-10-26T23:09:19.518Z,3.15
2022-10-26T23:11:52.229Z,3.28
2022-10-26T23:14:24.590Z,2.88
2022-10-26T23:16:56.911Z,2.83
2022-10-26T23:19:28.775Z,3.00
2022-10-26T23:22:01.494Z,2.78
2022-10-26T23:24:33.814Z,3.00
2022-10-26T23:27:06.188Z,3.25
2022-10-26T23:29:38.982Z,2.92
2022-10-26T23:32:11.345Z,3.60
2022-10-26T23:34:43.661Z,3.20
2022-10-26T23:37:15.575Z,2.70
2022-10-26T23:39:48.277Z,2.70
2022-10-26T23:42:20.599Z,2.90
2022-10-26T23:44:52.896Z,2.75
2022-10-26T23:47:24.785Z,2.97
2022-10-26T23:49:57.962Z,2.80
2022-10-26T23:52:30.308Z,2.70
2022-10-26T23:55:02.172Z,3.28
2022-10-26T23:57:34.915Z,2.70
